sensor_id;sensor_type;location;lat;lon;timestamp;pressure;altitude;pressure_sealevel;temperature;humidity
21182;BME280;10749;46.296;7.524;2023-12-20T00:01:18;95255.38;;;6.87;52.45
21182;BME280;10749;46.296;7.524;2023-12-20T00:03:43;95252.03;;;6.85;52.82
21182;BME280;10749;46.296;7.524;2023-12-20T00:06:09;95245.03;;;6.76;52.50
21182;BME280;10749;46.296;7.524;2023-12-20T00:08:34;95260.72;;;6.68;52.53
21182;BME280;10749;46.296;7.524;2023-12-20T00:11:00;95259.88;;;6.67;52.66
21182;BME280;10749;46.296;7.524;2023-12-20T00:13:25;95255.75;;;6.65;52.71
21182;BME280;10749;46.296;7.524;2023-12-20T00:15:50;95259.66;;;6.61;52.66
21182;BME280;10749;46.296;7.524;2023-12-20T00:18:15;95252.53;;;6.43;52.73
21182;BME280;10749;46.296;7.524;2023-12-20T00:20:41;95253.13;;;6.37;52.66
21182;BME280;10749;46.296;7.524;2023-12-20T00:23:06;95241.50;;;6.30;52.59
21182;BME280;10749;46.296;7.524;2023-12-20T00:25:33;95238.00;;;6.39;52.65
21182;BME280;10749;46.296;7.524;2023-12-20T00:27:58;95239.47;;;6.52;52.96
21182;BME280;10749;46.296;7.524;2023-12-20T00:30:23;95234.47;;;6.58;52.89
21182;BME280;10749;46.296;7.524;2023-12-20T00:32:49;95232.09;;;6.65;52.70
21182;BME280;10749;46.296;7.524;2023-12-20T00:35:14;95226.38;;;6.69;53.06
21182;BME280;10749;46.296;7.524;2023-12-20T00:37:40;95219.16;;;6.71;53.04
21182;BME280;10749;46.296;7.524;2023-12-20T00:40:05;95211.97;;;6.73;53.05
21182;BME280;10749;46.296;7.524;2023-12-20T00:42:32;95214.81;;;6.62;52.82
21182;BME280;10749;46.296;7.524;2023-12-20T00:44:58;95217.56;;;6.61;52.77
21182;BME280;10749;46.296;7.524;2023-12-20T00:47:24;95206.75;;;6.64;53.02
21182;BME280;10749;46.296;7.524;2023-12-20T00:49:49;95211.72;;;6.67;53.24
21182;BME280;10749;46.296;7.524;2023-12-20T00:52:15;95210.59;;;6.69;53.05
21182;BME280;10749;46.296;7.524;2023-12-20T00:54:42;95223.88;;;6.68;52.94
21182;BME280;10749;46.296;7.524;2023-12-20T00:57:07;95218.22;;;6.45;52.94
21182;BME280;10749;46.296;7.524;2023-12-20T00:59:32;95223.28;;;6.19;53.24
21182;BME280;10749;46.296;7.524;2023-12-20T01:01:58;95215.16;;;6.13;53.20
21182;BME280;10749;46.296;7.524;2023-12-20T01:04:23;95211.22;;;6.26;53.33
21182;BME280;10749;46.296;7.524;2023-12-20T01:06:48;95209.13;;;6.30;53.35
21182;BME280;10749;46.296;7.524;2023-12-20T01:09:13;95190.16;;;6.36;53.38
21182;BME280;10749;46.296;7.524;2023-12-20T01:11:39;95196.34;;;6.44;53.46
21182;BME280;10749;46.296;7.524;2023-12-20T01:14:04;95190.22;;;6.54;53.54
21182;BME280;10749;46.296;7.524;2023-12-20T01:16:30;95193.91;;;6.61;53.29
21182;BME280;10749;46.296;7.524;2023-12-20T01:18:55;95195.69;;;6.60;53.32
21182;BME280;10749;46.296;7.524;2023-12-20T01:21:20;95195.69;;;6.60;53.43
21182;BME280;10749;46.296;7.524;2023-12-20T01:23:46;95193.69;;;6.54;53.21
21182;BME280;10749;46.296;7.524;2023-12-20T01:26:12;95190.22;;;6.54;53.46
21182;BME280;10749;46.296;7.524;2023-12-20T01:28:37;95197.72;;;6.48;53.51
21182;BME280;10749;46.296;7.524;2023-12-20T01:31:03;95207.97;;;6.42;53.54
21182;BME280;10749;46.296;7.524;2023-12-20T01:33:29;95198.66;;;6.47;53.72
21182;BME280;10749;46.296;7.524;2023-12-20T01:35:54;95209.97;;;6.58;53.59
21182;BME280;10749;46.296;7.524;2023-12-20T01:38:19;95206.75;;;6.64;53.66
21182;BME280;10749;46.296;7.524;2023-12-20T01:40:45;95202.84;;;6.68;53.72
21182;BME280;10749;46.296;7.524;2023-12-20T01:43:10;95204.13;;;6.64;53.75
21182;BME280;10749;46.296;7.524;2023-12-20T01:45:37;95187.19;;;6.48;53.63
21182;BME280;10749;46.296;7.524;2023-12-20T01:48:03;95188.25;;;6.56;53.67
21182;BME280;10749;46.296;7.524;2023-12-20T01:50:31;95191.56;;;6.58;53.81
21182;BME280;10749;46.296;7.524;2023-12-20T01:52:58;95190.97;;;6.64;53.69
21182;BME280;10749;46.296;7.524;2023-12-20T01:55:25;95186.53;;;6.64;53.90
21182;BME280;10749;46.296;7.524;2023-12-20T01:57:52;95187.38;;;6.65;54.03
21182;BME280;10749;46.296;7.524;2023-12-20T02:00:18;95186.84;;;6.61;53.85
21182;BME280;10749;46.296;7.524;2023-12-20T02:02:48;95194.56;;;6.63;54.07
21182;BME280;10749;46.296;7.524;2023-12-20T02:05:16;95187.63;;;6.44;53.81
21182;BME280;10749;46.296;7.524;2023-12-20T02:07:41;95200.91;;;6.15;53.75
21182;BME280;10749;46.296;7.524;2023-12-20T02:10:07;95205.38;;;5.95;54.21
21182;BME280;10749;46.296;7.524;2023-12-20T02:12:32;95193.75;;;5.98;54.27
21182;BME280;10749;46.296;7.524;2023-12-20T02:14:58;95191.78;;;6.10;54.17
21182;BME280;10749;46.296;7.524;2023-12-20T02:17:23;95185.91;;;6.25;54.36
21182;BME280;10749;46.296;7.524;2023-12-20T02:19:49;95181.44;;;6.35;54.36
21182;BME280;10749;46.296;7.524;2023-12-20T02:22:15;95180.03;;;6.41;54.35
21182;BME280;10749;46.296;7.524;2023-12-20T02:24:40;95187.22;;;6.39;54.20
21182;BME280;10749;46.296;7.524;2023-12-20T02:27:06;95192.56;;;6.29;54.00
21182;BME280;10749;46.296;7.524;2023-12-20T02:29:33;95194.59;;;6.35;54.08
21182;BME280;10749;46.296;7.524;2023-12-20T02:31:58;95201.91;;;6.41;54.68
21182;BME280;10749;46.296;7.524;2023-12-20T02:34:23;95202.25;;;6.46;54.20
21182;BME280;10749;46.296;7.524;2023-12-20T02:36:48;95196.34;;;6.44;54.08
21182;BME280;10749;46.296;7.524;2023-12-20T02:39:14;95198.28;;;6.42;54.27
21182;BME280;10749;46.296;7.524;2023-12-20T02:41:39;95197.00;;;6.46;54.12
21182;BME280;10749;46.296;7.524;2023-12-20T02:44:04;95194.69;;;6.43;54.18
21182;BME280;10749;46.296;7.524;2023-12-20T02:46:29;95182.66;;;6.41;54.16
21182;BME280;10749;46.296;7.524;2023-12-20T02:48:55;95190.56;;;6.41;54.48
21182;BME280;10749;46.296;7.524;2023-12-20T02:51:20;95183.75;;;6.38;54.34
21182;BME280;10749;46.296;7.524;2023-12-20T02:53:45;95180.38;;;6.28;54.53
21182;BME280;10749;46.296;7.524;2023-12-20T02:56:11;95174.63;;;6.15;54.49
21182;BME280;10749;46.296;7.524;2023-12-20T02:58:36;95177.47;;;6.22;54.67
21182;BME280;10749;46.296;7.524;2023-12-20T03:01:01;95172.88;;;6.33;54.56
21182;BME280;10749;46.296;7.524;2023-12-20T03:03:27;95167.72;;;6.41;54.50
21182;BME280;10749;46.296;7.524;2023-12-20T03:05:52;95167.41;;;6.44;54.68
21182;BME280;10749;46.296;7.524;2023-12-20T03:08:17;95156.75;;;6.46;54.13
21182;BME280;10749;46.296;7.524;2023-12-20T03:10:42;95148.53;;;6.31;54.32
21182;BME280;10749;46.296;7.524;2023-12-20T03:13:08;95135.84;;;6.17;54.30
21182;BME280;10749;46.296;7.524;2023-12-20T03:15:33;95141.81;;;6.19;54.61
21182;BME280;10749;46.296;7.524;2023-12-20T03:17:58;95137.47;;;6.28;54.78
21182;BME280;10749;46.296;7.524;2023-12-20T03:20:24;95142.69;;;6.37;54.61
21182;BME280;10749;46.296;7.524;2023-12-20T03:22:51;95136.75;;;6.35;54.61
21182;BME280;10749;46.296;7.524;2023-12-20T03:25:16;95145.22;;;6.29;54.82
21182;BME280;10749;46.296;7.524;2023-12-20T03:27:41;95129.19;;;6.23;54.77
21182;BME280;10749;46.296;7.524;2023-12-20T03:30:07;95133.31;;;6.25;54.92
21182;BME280;10749;46.296;7.524;2023-12-20T03:32:32;95131.00;;;6.22;54.77
21182;BME280;10749;46.296;7.524;2023-12-20T03:34:58;95124.53;;;6.17;54.56
21182;BME280;10749;46.296;7.524;2023-12-20T03:37:23;95117.00;;;6.04;54.61
21182;BME280;10749;46.296;7.524;2023-12-20T03:39:48;95103.88;;;6.04;54.76
21182;BME280;10749;46.296;7.524;2023-12-20T03:42:13;95096.34;;;6.09;54.81
21182;BME280;10749;46.296;7.524;2023-12-20T03:44:39;95092.91;;;6.09;54.87
21182;BME280;10749;46.296;7.524;2023-12-20T03:47:05;95089.06;;;6.03;54.84
21182;BME280;10749;46.296;7.524;2023-12-20T03:49:30;95080.03;;;6.06;54.66
21182;BME280;10749;46.296;7.524;2023-12-20T03:51:55;95079.66;;;6.00;54.60
21182;BME280;10749;46.296;7.524;2023-12-20T03:54:21;95086.44;;;6.03;55.02
21182;BME280;10749;46.296;7.524;2023-12-20T03:56:46;95094.97;;;6.05;54.81
21182;BME280;10749;46.296;7.524;2023-12-20T03:59:11;95096.66;;;6.06;55.13
21182;BME280;10749;46.296;7.524;2023-12-20T04:01:36;95094.72;;;6.08;55.08
21182;BME280;10749;46.296;7.524;2023-12-20T04:04:02;95094.63;;;6.00;55.02
21182;BME280;10749;46.296;7.524;2023-12-20T04:06:27;95092.53;;;6.03;54.97
21182;BME280;10749;46.296;7.524;2023-12-20T04:08:53;95088.94;;;6.05;55.04
21182;BME280;10749;46.296;7.524;2023-12-20T04:11:18;95073.97;;;6.05;55.10
21182;BME280;10749;46.296;7.524;2023-12-20T04:13:43;95080.88;;;6.06;55.19
21182;BME280;10749;46.296;7.524;2023-12-20T04:16:08;95080.31;;;6.12;55.33
21182;BME280;10749;46.296;7.524;2023-12-20T04:18:34;95079.88;;;6.17;55.31
21182;BME280;10749;46.296;7.524;2023-12-20T04:20:59;95087.97;;;6.23;55.28
21182;BME280;10749;46.296;7.524;2023-12-20T04:23:24;95095.56;;;6.26;55.29
21182;BME280;10749;46.296;7.524;2023-12-20T04:25:50;95097.34;;;6.26;55.33
21182;BME280;10749;46.296;7.524;2023-12-20T04:28:15;95106.28;;;6.15;55.26
21182;BME280;10749;46.296;7.524;2023-12-20T04:30:41;95115.13;;;6.14;55.42
21182;BME280;10749;46.296;7.524;2023-12-20T04:33:07;95112.38;;;6.16;55.21
21182;BME280;10749;46.296;7.524;2023-12-20T04:35:32;95120.78;;;6.19;55.28
21182;BME280;10749;46.296;7.524;2023-12-20T04:37:57;95125.66;;;6.14;55.53
21182;BME280;10749;46.296;7.524;2023-12-20T04:40:22;95132.88;;;6.12;55.53
21182;BME280;10749;46.296;7.524;2023-12-20T04:42:48;95122.91;;;6.06;55.63
21182;BME280;10749;46.296;7.524;2023-12-20T04:45:13;95142.75;;;5.91;55.61
21182;BME280;10749;46.296;7.524;2023-12-20T04:47:41;95129.50;;;5.83;55.65
21182;BME280;10749;46.296;7.524;2023-12-20T04:50:07;95127.44;;;5.86;55.79
21182;BME280;10749;46.296;7.524;2023-12-20T04:52:32;95115.22;;;5.95;55.82
21182;BME280;10749;46.296;7.524;2023-12-20T04:54:58;95124.28;;;6.10;55.77
21182;BME280;10749;46.296;7.524;2023-12-20T04:57:24;95119.28;;;6.17;55.65
21182;BME280;10749;46.296;7.524;2023-12-20T04:59:49;95124.63;;;5.97;55.81
21182;BME280;10749;46.296;7.524;2023-12-20T05:02:14;95118.44;;;5.89;55.88
21182;BME280;10749;46.296;7.524;2023-12-20T05:04:40;95128.66;;;5.82;55.75
21182;BME280;10749;46.296;7.524;2023-12-20T05:07:06;95137.06;;;5.86;55.65
21182;BME280;10749;46.296;7.524;2023-12-20T05:09:31;95139.00;;;5.93;55.81
21182;BME280;10749;46.296;7.524;2023-12-20T05:11:57;95135.00;;;5.99;55.95
21182;BME280;10749;46.296;7.524;2023-12-20T05:14:22;95134.03;;;6.00;55.93
21182;BME280;10749;46.296;7.524;2023-12-20T05:16:47;95133.19;;;5.99;55.98
21182;BME280;10749;46.296;7.524;2023-12-20T05:19:12;95139.59;;;5.87;55.77
21182;BME280;10749;46.296;7.524;2023-12-20T05:21:39;95139.59;;;5.78;55.58
21182;BME280;10749;46.296;7.524;2023-12-20T05:24:04;95131.59;;;5.70;55.91
21182;BME280;10749;46.296;7.524;2023-12-20T05:26:30;95132.56;;;5.69;55.93
21182;BME280;10749;46.296;7.524;2023-12-20T05:28:55;95136.00;;;5.79;56.10
21182;BME280;10749;46.296;7.524;2023-12-20T05:31:20;95152.84;;;5.86;55.96
21182;BME280;10749;46.296;7.524;2023-12-20T05:33:46;95158.22;;;5.94;56.03
21182;BME280;10749;46.296;7.524;2023-12-20T05:36:11;95156.31;;;5.96;55.83
21182;BME280;10749;46.296;7.524;2023-12-20T05:38:38;95165.00;;;5.96;56.18
21182;BME280;10749;46.296;7.524;2023-12-20T05:41:04;95169.16;;;5.99;56.04
21182;BME280;10749;46.296;7.524;2023-12-20T05:43:29;95174.94;;;6.02;56.09
21182;BME280;10749;46.296;7.524;2023-12-20T05:45:55;95180.44;;;6.09;56.50
21182;BME280;10749;46.296;7.524;2023-12-20T05:48:20;95176.28;;;6.16;56.18
21182;BME280;10749;46.296;7.524;2023-12-20T05:50:45;95186.19;;;6.22;56.09
21182;BME280;10749;46.296;7.524;2023-12-20T05:53:10;95192.41;;;6.21;56.04
21182;BME280;10749;46.296;7.524;2023-12-20T05:55:36;95196.03;;;6.20;56.10
21182;BME280;10749;46.296;7.524;2023-12-20T05:58:01;95195.22;;;6.10;56.09
21182;BME280;10749;46.296;7.524;2023-12-20T06:00:26;95199.13;;;6.06;56.04
21182;BME280;10749;46.296;7.524;2023-12-20T06:02:52;95202.03;;;6.13;56.14
21182;BME280;10749;46.296;7.524;2023-12-20T06:05:17;95203.28;;;6.09;55.90
21182;BME280;10749;46.296;7.524;2023-12-20T06:07:43;95212.25;;;6.06;56.10
21182;BME280;10749;46.296;7.524;2023-12-20T06:10:08;95218.09;;;6.00;56.20
21182;BME280;10749;46.296;7.524;2023-12-20T06:12:34;95216.56;;;6.07;56.34
21182;BME280;10749;46.296;7.524;2023-12-20T06:15:01;95227.34;;;6.04;56.33
21182;BME280;10749;46.296;7.524;2023-12-20T06:17:26;95223.31;;;6.10;56.30
21182;BME280;10749;46.296;7.524;2023-12-20T06:19:52;95228.84;;;6.16;56.42
21182;BME280;10749;46.296;7.524;2023-12-20T06:22:17;95235.72;;;6.17;56.40
21182;BME280;10749;46.296;7.524;2023-12-20T06:24:42;95232.13;;;6.18;56.29
21182;BME280;10749;46.296;7.524;2023-12-20T06:27:07;95240.97;;;6.27;56.47
21182;BME280;10749;46.296;7.524;2023-12-20T06:29:33;95239.28;;;6.35;56.39
21182;BME280;10749;46.296;7.524;2023-12-20T06:31:59;95235.38;;;6.39;56.36
21182;BME280;10749;46.296;7.524;2023-12-20T06:34:25;95236.44;;;6.46;56.46
21182;BME280;10749;46.296;7.524;2023-12-20T06:36:50;95234.53;;;6.48;56.27
21182;BME280;10749;46.296;7.524;2023-12-20T06:39:16;95238.41;;;6.44;56.27
21182;BME280;10749;46.296;7.524;2023-12-20T06:41:41;95237.88;;;6.41;56.39
21182;BME280;10749;46.296;7.524;2023-12-20T06:44:07;95241.44;;;6.49;56.11
21182;BME280;10749;46.296;7.524;2023-12-20T06:46:33;95244.31;;;6.56;56.54
21182;BME280;10749;46.296;7.524;2023-12-20T06:48:58;95239.47;;;6.52;56.53
21182;BME280;10749;46.296;7.524;2023-12-20T06:51:23;95240.34;;;6.42;56.33
21182;BME280;10749;46.296;7.524;2023-12-20T06:53:51;95234.31;;;6.32;56.11
21182;BME280;10749;46.296;7.524;2023-12-20T06:56:16;95227.38;;;6.31;56.47
21182;BME280;10749;46.296;7.524;2023-12-20T06:58:42;95226.81;;;6.37;56.43
21182;BME280;10749;46.296;7.524;2023-12-20T07:01:11;95238.25;;;6.46;56.41
21182;BME280;10749;46.296;7.524;2023-12-20T07:03:36;95237.81;;;6.50;56.61
21182;BME280;10749;46.296;7.524;2023-12-20T07:06:02;95228.38;;;6.58;56.58
21182;BME280;10749;46.296;7.524;2023-12-20T07:08:27;95245.81;;;6.59;56.53
21182;BME280;10749;46.296;7.524;2023-12-20T07:10:53;95245.34;;;6.45;56.36
21182;BME280;10749;46.296;7.524;2023-12-20T07:13:18;95253.91;;;6.38;56.35
21182;BME280;10749;46.296;7.524;2023-12-20T07:15:43;95261.16;;;6.26;56.70
21182;BME280;10749;46.296;7.524;2023-12-20T07:18:08;95255.34;;;6.32;56.63
21182;BME280;10749;46.296;7.524;2023-12-20T07:20:34;95262.47;;;6.49;56.70
21182;BME280;10749;46.296;7.524;2023-12-20T07:22:59;95252.28;;;6.64;56.64
21182;BME280;10749;46.296;7.524;2023-12-20T07:25:24;95257.53;;;6.74;56.65
21182;BME280;10749;46.296;7.524;2023-12-20T07:27:50;95264.22;;;6.86;56.66
21182;BME280;10749;46.296;7.524;2023-12-20T07:30:15;95264.47;;;6.92;56.82
21182;BME280;10749;46.296;7.524;2023-12-20T07:32:40;95266.13;;;6.93;56.81
21182;BME280;10749;46.296;7.524;2023-12-20T07:35:06;95264.19;;;6.95;56.56
21182;BME280;10749;46.296;7.524;2023-12-20T07:37:31;95261.09;;;7.00;56.91
21182;BME280;10749;46.296;7.524;2023-12-20T07:39:56;95259.81;;;7.04;56.75
21182;BME280;10749;46.296;7.524;2023-12-20T07:42:22;95256.91;;;7.07;56.67
21182;BME280;10749;46.296;7.524;2023-12-20T07:44:47;95262.00;;;7.09;56.90
21182;BME280;10749;46.296;7.524;2023-12-20T07:47:12;95253.66;;;7.13;56.60
21182;BME280;10749;46.296;7.524;2023-12-20T07:49:40;95256.38;;;7.04;56.56
21182;BME280;10749;46.296;7.524;2023-12-20T07:52:06;95260.28;;;7.00;56.39
21182;BME280;10749;46.296;7.524;2023-12-20T07:54:31;95263.50;;;6.93;56.71
21182;BME280;10749;46.296;7.524;2023-12-20T07:56:57;95268.09;;;6.91;56.61
21182;BME280;10749;46.296;7.524;2023-12-20T07:59:22;95265.91;;;6.87;56.63
21182;BME280;10749;46.296;7.524;2023-12-20T08:01:47;95265.63;;;6.80;56.86
21182;BME280;10749;46.296;7.524;2023-12-20T08:04:13;95271.13;;;6.60;56.91
21182;BME280;10749;46.296;7.524;2023-12-20T08:06:38;95265.47;;;6.55;56.91
21182;BME280;10749;46.296;7.524;2023-12-20T08:09:03;95270.03;;;6.62;56.84
21182;BME280;10749;46.296;7.524;2023-12-20T08:11:29;95277.19;;;6.70;57.00
21182;BME280;10749;46.296;7.524;2023-12-20T08:13:54;95277.97;;;6.80;56.82
21182;BME280;10749;46.296;7.524;2023-12-20T08:16:20;95272.47;;;6.73;56.79
21182;BME280;10749;46.296;7.524;2023-12-20T08:18:45;95286.50;;;6.55;56.97
21182;BME280;10749;46.296;7.524;2023-12-20T08:21:11;95288.47;;;6.53;56.87
21182;BME280;10749;46.296;7.524;2023-12-20T08:23:36;95285.41;;;6.57;57.17
21182;BME280;10749;46.296;7.524;2023-12-20T08:26:08;95278.16;;;6.69;57.12
21182;BME280;10749;46.296;7.524;2023-12-20T08:28:34;95288.13;;;6.75;57.16
21182;BME280;10749;46.296;7.524;2023-12-20T08:30:59;95299.00;;;6.80;57.20
21182;BME280;10749;46.296;7.524;2023-12-20T08:33:25;95317.81;;;6.85;57.10
21182;BME280;10749;46.296;7.524;2023-12-20T08:35:50;95311.31;;;6.79;56.91
21182;BME280;10749;46.296;7.524;2023-12-20T08:38:15;95311.59;;;6.86;57.13
21182;BME280;10749;46.296;7.524;2023-12-20T08:40:41;95324.84;;;6.94;56.96
21182;BME280;10749;46.296;7.524;2023-12-20T08:43:07;95319.00;;;7.00;56.97
21182;BME280;10749;46.296;7.524;2023-12-20T08:45:32;95321.78;;;6.99;57.17
21182;BME280;10749;46.296;7.524;2023-12-20T08:47:57;95322.88;;;6.96;57.15
21182;BME280;10749;46.296;7.524;2023-12-20T08:50:23;95326.31;;;6.79;57.13
21182;BME280;10749;46.296;7.524;2023-12-20T08:52:48;95338.22;;;6.83;57.17
21182;BME280;10749;46.296;7.524;2023-12-20T08:55:13;95335.13;;;6.87;57.09
21182;BME280;10749;46.296;7.524;2023-12-20T08:57:41;95330.41;;;6.91;57.00
21182;BME280;10749;46.296;7.524;2023-12-20T09:00:07;95314.72;;;6.99;57.17
21182;BME280;10749;46.296;7.524;2023-12-20T09:02:32;95322.00;;;7.05;57.09
21182;BME280;10749;46.296;7.524;2023-12-20T09:05:01;95316.84;;;7.13;57.23
21182;BME280;10749;46.296;7.524;2023-12-20T09:07:26;95307.69;;;7.17;57.19
21182;BME280;10749;46.296;7.524;2023-12-20T09:09:53;95319.72;;;7.20;57.37
21182;BME280;10749;46.296;7.524;2023-12-20T09:12:19;95321.38;;;7.21;57.17
21182;BME280;10749;46.296;7.524;2023-12-20T09:14:46;95331.22;;;7.19;57.21
21182;BME280;10749;46.296;7.524;2023-12-20T09:17:11;95330.44;;;7.09;57.07
21182;BME280;10749;46.296;7.524;2023-12-20T09:19:37;95325.28;;;7.17;57.20
21182;BME280;10749;46.296;7.524;2023-12-20T09:22:03;95321.94;;;7.24;57.32
21182;BME280;10749;46.296;7.524;2023-12-20T09:24:29;95325.44;;;7.33;57.01
21182;BME280;10749;46.296;7.524;2023-12-20T09:26:55;95317.34;;;7.44;57.17
21182;BME280;10749;46.296;7.524;2023-12-20T09:29:20;95321.78;;;7.43;57.26
21182;BME280;10749;46.296;7.524;2023-12-20T09:31:45;95318.72;;;7.48;57.39
21182;BME280;10749;46.296;7.524;2023-12-20T09:34:11;95321.78;;;7.43;57.57
21182;BME280;10749;46.296;7.524;2023-12-20T09:36:36;95318.19;;;7.45;57.42
21182;BME280;10749;46.296;7.524;2023-12-20T09:39:04;95322.25;;;7.57;57.94
21182;BME280;10749;46.296;7.524;2023-12-20T09:41:31;95317.47;;;7.70;57.73
21182;BME280;10749;46.296;7.524;2023-12-20T09:44:02;95318.25;;;7.88;57.69
21182;BME280;10749;46.296;7.524;2023-12-20T09:46:28;95312.97;;;8.06;57.69
21182;BME280;10749;46.296;7.524;2023-12-20T09:48:59;95313.19;;;8.12;57.58
21182;BME280;10749;46.296;7.524;2023-12-20T09:51:27;95299.94;;;8.04;57.93
21182;BME280;10749;46.296;7.524;2023-12-20T09:53:54;95303.06;;;8.25;57.34
21182;BME280;10749;46.296;7.524;2023-12-20T09:56:21;95297.22;;;8.14;57.75
21182;BME280;10749;46.296;7.524;2023-12-20T09:58:46;95298.44;;;8.19;57.54
21182;BME280;10749;46.296;7.524;2023-12-20T10:01:12;95298.72;;;8.16;57.59
21182;BME280;10749;46.296;7.524;2023-12-20T10:03:39;95295.84;;;8.27;57.26
21182;BME280;10749;46.296;7.524;2023-12-20T10:06:06;95289.66;;;8.37;57.47
21182;BME280;10749;46.296;7.524;2023-12-20T10:08:32;95282.94;;;8.42;57.41
21182;BME280;10749;46.296;7.524;2023-12-20T10:10:57;95292.41;;;8.09;57.53
21182;BME280;10749;46.296;7.524;2023-12-20T10:13:27;95287.22;;;8.00;57.42
21182;BME280;10749;46.296;7.524;2023-12-20T10:15:54;95279.59;;;8.14;57.40
21182;BME280;10749;46.296;7.524;2023-12-20T10:18:20;95272.06;;;8.19;57.20
21182;BME280;10749;46.296;7.524;2023-12-20T10:20:46;95271.75;;;8.22;57.29
21182;BME280;10749;46.296;7.524;2023-12-20T10:23:11;95268.97;;;8.24;57.10
21182;BME280;10749;46.296;7.524;2023-12-20T10:25:37;95262.53;;;8.26;57.27
21182;BME280;10749;46.296;7.524;2023-12-20T10:28:15;95246.72;;;8.26;57.20
21182;BME280;10749;46.296;7.524;2023-12-20T10:30:44;95245.75;;;8.27;57.33
21182;BME280;10749;46.296;7.524;2023-12-20T10:33:10;95252.97;;;8.25;57.21
21182;BME280;10749;46.296;7.524;2023-12-20T10:35:36;95258.19;;;8.17;57.19
21182;BME280;10749;46.296;7.524;2023-12-20T10:38:04;95259.16;;;8.16;57.07
21182;BME280;10749;46.296;7.524;2023-12-20T10:40:30;95255.53;;;8.35;57.17
21182;BME280;10749;46.296;7.524;2023-12-20T10:42:56;95251.97;;;8.44;57.40
21182;BME280;10749;46.296;7.524;2023-12-20T10:45:23;95246.50;;;8.46;56.94
21182;BME280;10749;46.296;7.524;2023-12-20T10:47:49;95264.00;;;8.47;57.10
21182;BME280;10749;46.296;7.524;2023-12-20T10:50:15;95255.19;;;8.64;57.30
21182;BME280;10749;46.296;7.524;2023-12-20T10:52:41;95259.13;;;8.60;57.21
21182;BME280;10749;46.296;7.524;2023-12-20T10:55:07;95258.81;;;8.63;57.23
21182;BME280;10749;46.296;7.524;2023-12-20T10:57:35;95253.94;;;8.76;57.15
21182;BME280;10749;46.296;7.524;2023-12-20T11:00:01;95254.66;;;8.86;57.17
21182;BME280;10749;46.296;7.524;2023-12-20T11:02:32;95252.69;;;8.96;57.14
21182;BME280;10749;46.296;7.524;2023-12-20T11:07:33;95240.59;;;9.27;56.95
21182;BME280;10749;46.296;7.524;2023-12-20T11:10:17;95240.59;;;9.36;57.15
21182;BME280;10749;46.296;7.524;2023-12-20T11:12:53;95243.25;;;9.44;57.10
21182;BME280;10749;46.296;7.524;2023-12-20T11:15:20;95239.44;;;9.46;57.08
21182;BME280;10749;46.296;7.524;2023-12-20T11:17:47;95233.81;;;9.57;57.35
21182;BME280;10749;46.296;7.524;2023-12-20T11:20:22;95226.75;;;9.66;56.97
21182;BME280;10749;46.296;7.524;2023-12-20T11:22:55;95228.88;;;9.70;57.20
21182;BME280;10749;46.296;7.524;2023-12-20T11:25:21;95224.78;;;9.76;57.21
21182;BME280;10749;46.296;7.524;2023-12-20T11:28:07;95232.03;;;9.66;57.14
21182;BME280;10749;46.296;7.524;2023-12-20T11:30:42;95215.34;;;9.57;56.73
21182;BME280;10749;46.296;7.524;2023-12-20T11:33:10;95219.47;;;9.60;57.17
21182;BME280;10749;46.296;7.524;2023-12-20T11:35:35;95217.63;;;9.44;57.09
21182;BME280;10749;46.296;7.524;2023-12-20T11:38:02;95219.47;;;9.52;57.23
21182;BME280;10749;46.296;7.524;2023-12-20T11:40:27;95214.34;;;9.91;57.39
21182;BME280;10749;46.296;7.524;2023-12-20T11:42:52;95206.56;;;10.30;57.20
21182;BME280;10749;46.296;7.524;2023-12-20T11:45:24;95202.84;;;10.55;57.32
21182;BME280;10749;46.296;7.524;2023-12-20T11:47:51;95205.53;;;10.47;57.21
21182;BME280;10749;46.296;7.524;2023-12-20T11:50:19;95206.50;;;10.54;57.03
21182;BME280;10749;46.296;7.524;2023-12-20T11:52:45;95195.84;;;10.70;57.28
21182;BME280;10749;46.296;7.524;2023-12-20T11:55:10;95193.47;;;10.83;57.23
21182;BME280;10749;46.296;7.524;2023-12-20T11:57:36;95197.38;;;10.95;57.17
21182;BME280;10749;46.296;7.524;2023-12-20T12:00:03;95187.31;;;10.91;56.89
21182;BME280;10749;46.296;7.524;2023-12-20T12:02:28;95189.88;;;10.76;56.76
21182;BME280;10749;46.296;7.524;2023-12-20T12:04:53;95174.94;;;10.83;57.02
21182;BME280;10749;46.296;7.524;2023-12-20T12:07:20;95177.09;;;11.10;57.11
21182;BME280;10749;46.296;7.524;2023-12-20T12:09:45;95163.78;;;11.19;56.75
21182;BME280;10749;46.296;7.524;2023-12-20T12:12:12;95163.34;;;11.38;56.79
21182;BME280;10749;46.296;7.524;2023-12-20T12:14:37;95164.06;;;11.77;56.90
21182;BME280;10749;46.296;7.524;2023-12-20T12:17:03;95157.38;;;11.81;56.80
21182;BME280;10749;46.296;7.524;2023-12-20T12:19:29;95154.38;;;11.16;55.80
21182;BME280;10749;46.296;7.524;2023-12-20T12:22:15;95152.75;;;10.84;55.87
21182;BME280;10749;46.296;7.524;2023-12-20T12:24:44;95143.31;;;11.13;56.22
21182;BME280;10749;46.296;7.524;2023-12-20T12:27:11;95140.06;;;11.48;56.28
21182;BME280;10749;46.296;7.524;2023-12-20T12:29:37;95128.78;;;11.69;56.18
21182;BME280;10749;46.296;7.524;2023-12-20T12:32:09;95129.22;;;11.57;55.77
21182;BME280;10749;46.296;7.524;2023-12-20T12:34:35;95139.66;;;11.82;56.17
21182;BME280;10749;46.296;7.524;2023-12-20T12:37:01;95123.66;;;11.75;55.80
21182;BME280;10749;46.296;7.524;2023-12-20T12:39:27;95122.91;;;11.81;55.74
21182;BME280;10749;46.296;7.524;2023-12-20T12:41:54;95132.66;;;12.18;56.04
21182;BME280;10749;46.296;7.524;2023-12-20T12:44:20;95124.72;;;12.33;56.01
21182;BME280;10749;46.296;7.524;2023-12-20T12:46:48;95123.84;;;12.47;56.14
21182;BME280;10749;46.296;7.524;2023-12-20T12:49:16;95119.28;;;12.70;56.26
21182;BME280;10749;46.296;7.524;2023-12-20T12:51:42;95119.44;;;12.83;56.08
21182;BME280;10749;46.296;7.524;2023-12-20T12:54:08;95115.94;;;12.83;56.08
21182;BME280;10749;46.296;7.524;2023-12-20T12:56:34;95116.88;;;12.75;55.94
21182;BME280;10749;46.296;7.524;2023-12-20T12:58:59;95117.81;;;12.53;55.86
21182;BME280;10749;46.296;7.524;2023-12-20T13:01:24;95108.13;;;12.31;55.90
21182;BME280;10749;46.296;7.524;2023-12-20T13:03:50;95100.25;;;12.23;55.77
21182;BME280;10749;46.296;7.524;2023-12-20T13:06:15;95094.94;;;12.23;55.50